Airfield :
LOGIN :

Register | Disclaimer

   EN    FR    IT 

 










Legend :    VFR   Marginal VFR   IFR   Intensive IFR   Very Intensive IFR
Visi :
Ceiling :
>= 8 km
>= 3000ft
5 to 8 km
1000 to 3000 ft
1500m to 5 km
500 to 1000 ft
800 to 1500m
200 to 500 ft
< 800m
< 200 ft
Symbols :   Thunderstorms  Fog  Heavy snow  Heavy precipitations  Wind > 20 kt
SIGMETs :     Misc.  Thunderstorms  Icing  Turbulence  Mountain Waves  Volcanic Ashes






- Airport Elevation : 1045 ft
- IATA code : KIT


LGKC - Kithira

CURRENT METAR :
  • 131150Z 14006KT 6000 RA FEW004 BKN014 FEW015CB 17/16 Q1011

EXPIRED METARs :
  • 131050Z 28007KT 260V340 8000 RA FEW006 BKN014 FEW015CB 17/16 Q1011
  • 131020Z 06010KT 8000 RA SCT005 FEW015TCU BKN016 17/16 Q1011

TAF TAF LGKC
Valid from the 13 at 12:00 until the 13 at 21:00 UTC


131100Z 1312/1321 25012KT 9999 FEW018 SCT025
PROB40
TEMPO 1312/1315 5000 RA SCT010 BKN020
PROB30
TEMPO 1312/1314 3000 TSRA SCT010 FEW018CB BKN025



MET'MAP, your aeronautical weather chart ! - Copyright ORBIFLY December 2007 - Disclaimer

ORBIFLY MET'MAP TEAM :

Programming & Development : Alexandra Zaïnal
Concept & Development : Baudouin d'Aumeries
Co-Development & Prog : Marc-Olivier Méhu
Technical & hardware support : Manuel Goepfert

Contact : metmap@orbifly.com




SOURCES & CREDITS :

   NOAA